Прогноз погоды TAF Нижневартовск

Прогноз погоды TAF: 
TAF USNN 231651Z 2318/2418 26006G14MPS 6000 -SHRA BKN016CB TEMPO 2318/2402 1500 SHRA BKN005 BKN017CB BECMG 2403/2404 9999 NSW BKN017
Аэропорт подробнее: 
Регион: